createdAt,value
2023-01-17T00:01:46.575Z,97601.69
2023-01-17T00:04:32.898Z,97610.59
2023-01-17T00:07:18.349Z,97603.75
2023-01-17T00:09:54.155Z,97607.44
2023-01-17T00:12:22.940Z,97612.91
2023-01-17T00:14:53.968Z,97608.41
2023-01-17T00:17:21.534Z,97600.09
2023-01-17T00:20:07.098Z,97608.78
2023-01-17T00:22:53.115Z,97601.06
2023-01-17T00:25:43.423Z,97604.75
2023-01-17T00:28:10.613Z,97603.47
2023-01-17T00:30:39.017Z,97602.75
2023-01-17T00:33:05.921Z,97600.72
2023-01-17T00:35:33.869Z,97606.03
2023-01-17T00:38:03.168Z,97603.44
2023-01-17T00:40:30.821Z,97600.56
2023-01-17T00:43:16.468Z,97600.50
2023-01-17T00:46:04.688Z,97599.66
2023-01-17T00:48:51.167Z,97602.75
2023-01-17T00:51:38.233Z,97599.56
2023-01-17T00:54:24.330Z,97599.00
2023-01-17T00:57:10.457Z,97594.28
2023-01-17T00:59:55.980Z,97610.13
2023-01-17T01:02:44.417Z,97609.06
2023-01-17T01:05:32.655Z,97608.31
2023-01-17T01:08:18.269Z,97624.38
2023-01-17T01:11:05.354Z,97613.88
2023-01-17T01:13:51.903Z,97613.66
2023-01-17T01:16:39.048Z,97622.16
2023-01-17T01:19:25.870Z,97620.44
2023-01-17T01:22:11.448Z,97613.59
2023-01-17T01:24:57.084Z,97632.06
2023-01-17T01:27:42.624Z,97627.28
2023-01-17T01:30:30.084Z,97640.41
2023-01-17T01:33:15.731Z,97638.25
2023-01-17T01:35:44.135Z,97648.47
2023-01-17T01:38:11.078Z,97649.75
2023-01-17T01:40:47.648Z,97658.69
2023-01-17T01:43:18.181Z,97658.69
2023-01-17T01:45:51.706Z,97663.16
2023-01-17T01:48:35.282Z,97660.16
2023-01-17T01:51:11.913Z,97663.28
2023-01-17T01:53:46.074Z,97662.69
2023-01-17T01:56:15.396Z,97661.28
2023-01-17T01:58:48.048Z,97658.03
2023-01-17T02:01:16.004Z,97662.97
2023-01-17T02:03:44.364Z,97664.03
2023-01-17T02:06:27.324Z,97667.41
2023-01-17T02:08:55.888Z,97670.03
2023-01-17T02:11:22.912Z,97665.50
2023-01-17T02:13:49.816Z,97678.06
2023-01-17T02:16:38.081Z,97671.72
2023-01-17T02:19:37.632Z,97677.47
2023-01-17T02:22:33.299Z,97671.38
2023-01-17T02:25:31.074Z,97676.31
2023-01-17T02:28:23.932Z,97677.38
2023-01-17T02:30:57.792Z,97682.66
2023-01-17T02:33:33.850Z,97690.25
2023-01-17T02:36:10.851Z,97686.03
2023-01-17T02:38:50.998Z,97685.47
2023-01-17T02:41:23.567Z,97693.13
2023-01-17T02:43:51.531Z,97701.22
2023-01-17T02:46:20.070Z,97693.59
2023-01-17T02:48:48.975Z,97698.59
2023-01-17T02:51:51.294Z,97707.75
2023-01-17T02:54:39.371Z,97704.13
2023-01-17T02:57:29.731Z,97712.53
2023-01-17T03:00:06.611Z,97708.88
2023-01-17T03:02:48.722Z,97700.50
2023-01-17T03:05:23.867Z,97716.31
2023-01-17T03:07:52.745Z,97721.56
2023-01-17T03:10:21.611Z,97723.19
2023-01-17T03:12:48.648Z,97721.56
2023-01-17T03:15:17.607Z,97725.25
2023-01-17T03:17:51.913Z,97729.72
2023-01-17T03:20:21.584Z,97730.00
2023-01-17T03:22:49.427Z,97742.09
2023-01-17T03:25:17.463Z,97735.25
2023-01-17T03:27:44.603Z,97755.50
2023-01-17T03:30:13.005Z,97746.56
2023-01-17T03:32:39.913Z,97754.69
2023-01-17T03:35:09.381Z,97752.63
2023-01-17T03:37:36.243Z,97757.63
2023-01-17T03:40:03.569Z,97774.44
2023-01-17T03:42:30.413Z,97771.53
2023-01-17T03:44:57.306Z,97769.97
2023-01-17T03:47:24.291Z,97769.41
2023-01-17T03:49:51.801Z,97781.44
2023-01-17T03:52:20.041Z,97785.09
2023-01-17T03:54:48.362Z,97792.75
2023-01-17T03:57:15.685Z,97789.06
2023-01-17T03:59:42.600Z,97798.28
2023-01-17T04:02:09.658Z,97808.31
2023-01-17T04:04:36.645Z,97807.84
2023-01-17T04:07:03.583Z,97809.19
2023-01-17T04:09:33.994Z,97816.81
2023-01-17T04:12:01.633Z,97826.31
2023-01-17T04:14:28.589Z,97819.78
2023-01-17T04:16:56.448Z,97834.25
2023-01-17T04:19:23.572Z,97843.50
2023-01-17T04:21:50.980Z,97839.00
2023-01-17T04:24:18.246Z,97847.94
2023-01-17T04:26:46.462Z,97858.69
2023-01-17T04:29:13.318Z,97874.69
2023-01-17T04:31:40.312Z,97877.56
2023-01-17T04:34:07.245Z,97881.22
2023-01-17T04:36:34.194Z,97883.31
2023-01-17T04:39:01.081Z,97880.94
2023-01-17T04:41:27.951Z,97885.84
2023-01-17T04:43:56.377Z,97886.59
2023-01-17T04:46:23.697Z,97892.31
2023-01-17T04:48:50.616Z,97903.88
2023-01-17T04:51:17.493Z,97911.16
2023-01-17T04:53:44.366Z,97916.41
2023-01-17T04:56:11.331Z,97916.41
2023-01-17T04:58:38.438Z,97916.19
2023-01-17T05:01:08.509Z,97931.97
2023-01-17T05:03:36.318Z,97933.31
2023-01-17T05:06:03.412Z,97943.81
2023-01-17T05:08:30.377Z,97951.69
2023-01-17T05:10:57.285Z,97952.25
2023-01-17T05:13:24.208Z,97953.34
2023-01-17T05:15:51.394Z,97966.03
2023-01-17T05:18:19.842Z,97971.03
2023-01-17T05:20:46.949Z,97975.50
2023-01-17T05:23:13.936Z,97978.34
2023-01-17T05:25:44.733Z,97990.47
2023-01-17T05:28:13.521Z,98001.78
2023-01-17T05:30:41.003Z,98013.88
2023-01-17T05:33:10.012Z,98025.97
2023-01-17T05:35:38.523Z,98028.06
2023-01-17T05:38:05.492Z,98038.56
2023-01-17T05:40:34.082Z,98048.03
2023-01-17T05:43:05.336Z,98047.22
2023-01-17T05:45:33.561Z,98059.09
2023-01-17T05:48:01.356Z,98072.78
2023-01-17T05:50:31.666Z,98082.28
2023-01-17T05:53:03.661Z,98084.44
2023-01-17T05:55:32.333Z,98090.25
2023-01-17T05:57:59.891Z,98087.88
2023-01-17T06:00:27.344Z,98095.41
2023-01-17T06:02:56.215Z,98101.94
2023-01-17T06:05:24.745Z,98100.56
2023-01-17T06:07:51.876Z,98112.13
2023-01-17T06:10:22.187Z,98114.56
2023-01-17T06:12:49.727Z,98114.25
2023-01-17T06:15:18.176Z,98128.13
2023-01-17T06:17:45.152Z,98119.81
2023-01-17T06:20:12.980Z,98118.47
2023-01-17T06:22:40.100Z,98124.09
2023-01-17T06:25:07.992Z,98122.38
2023-01-17T06:27:36.206Z,98136.44
2023-01-17T06:30:03.600Z,98137.09
2023-01-17T06:32:30.650Z,98145.06
2023-01-17T06:34:57.528Z,98147.38
2023-01-17T06:37:24.562Z,98139.72
2023-01-17T06:39:51.457Z,98160.59
2023-01-17T06:42:18.345Z,98177.78
2023-01-17T06:44:46.749Z,98178.25
2023-01-17T06:47:13.684Z,98177.69
2023-01-17T06:49:40.550Z,98174.47
2023-01-17T06:52:07.438Z,98184.38
2023-01-17T06:54:34.325Z,98184.81
2023-01-17T06:57:01.284Z,98183.69
2023-01-17T06:59:29.021Z,98194.75
2023-01-17T07:01:57.198Z,98190.06
2023-01-17T07:04:28.472Z,98202.16
2023-01-17T07:06:55.740Z,98204.22
2023-01-17T07:09:22.646Z,98208.31
2023-01-17T07:11:51.677Z,98211.16
2023-01-17T07:14:18.596Z,98231.31
2023-01-17T07:16:46.800Z,98222.09
2023-01-17T07:19:14.978Z,98227.34
2023-01-17T07:21:41.934Z,98238.59
2023-01-17T07:24:09.400Z,98233.94
2023-01-17T07:26:37.961Z,98242.59
2023-01-17T07:29:05.531Z,98246.25
2023-01-17T07:31:38.325Z,98245.22
2023-01-17T07:34:05.688Z,98254.34
2023-01-17T07:36:34.272Z,98249.56
2023-01-17T07:39:01.586Z,98255.22
2023-01-17T07:41:31.077Z,98255.22
2023-01-17T07:43:59.024Z,98250.34
2023-01-17T07:46:26.192Z,98261.19
2023-01-17T07:48:53.175Z,98252.06
2023-01-17T07:51:20.483Z,98261.75
2023-01-17T07:53:50.039Z,98261.63
2023-01-17T07:56:17.851Z,98259.44
2023-01-17T07:58:44.884Z,98268.91
2023-01-17T08:01:15.511Z,98270.97
2023-01-17T08:03:43.877Z,98277.78
2023-01-17T08:06:20.303Z,98283.84
2023-01-17T08:08:52.205Z,98286.47
2023-01-17T08:11:23.302Z,98286.47
2023-01-17T08:13:57.134Z,98291.94
2023-01-17T08:16:25.280Z,98290.78
2023-01-17T08:18:53.101Z,98292.78
2023-01-17T08:21:20.068Z,98300.09
2023-01-17T08:23:50.150Z,98296.88
2023-01-17T08:26:22.465Z,98302.56
2023-01-17T08:28:55.736Z,98307.09
2023-01-17T08:31:24.794Z,98308.13
2023-01-17T08:33:52.003Z,98312.75
2023-01-17T08:39:23.235Z,98319.81
2023-01-17T08:41:50.186Z,98321.22
2023-01-17T08:44:18.604Z,98328.63
2023-01-17T08:46:45.857Z,98331.03
2023-01-17T08:49:14.298Z,98329.81
2023-01-17T08:51:41.611Z,98326.81
2023-01-17T08:54:12.798Z,98329.44
2023-01-17T08:56:46.798Z,98336.47
2023-01-17T08:59:14.388Z,98345.72
2023-01-17T09:01:45.742Z,98349.72
2023-01-17T09:04:14.710Z,98351.34
2023-01-17T09:06:48.790Z,98357.03
2023-01-17T09:09:17.548Z,98351.78
2023-01-17T09:11:46.264Z,98357.59
2023-01-17T09:14:13.829Z,98361.03
2023-01-17T09:16:41.262Z,98370.69
2023-01-17T09:19:09.843Z,98368.69
2023-01-17T09:21:36.807Z,98371.41
2023-01-17T09:24:13.700Z,98375.06
2023-01-17T09:26:41.337Z,98379.28
2023-01-17T09:29:10.330Z,98375.22
2023-01-17T09:31:38.321Z,98385.25
2023-01-17T09:34:06.618Z,98382.63
2023-01-17T09:36:34.794Z,98393.72
2023-01-17T09:39:04.237Z,98397.06
2023-01-17T09:41:35.982Z,98397.34
2023-01-17T09:44:14.063Z,98396.47
2023-01-17T09:46:46.690Z,98414.50
2023-01-17T09:49:36.787Z,98413.25
2023-01-17T09:52:07.470Z,98413.63
2023-01-17T09:54:40.921Z,98416.84
2023-01-17T09:57:24.556Z,98415.97
2023-01-17T10:00:04.149Z,98427.19
2023-01-17T10:02:56.120Z,98422.66
2023-01-17T10:05:46.765Z,98434.09
2023-01-17T10:08:33.587Z,98439.78
2023-01-17T10:11:37.216Z,98438.56
2023-01-17T10:14:36.438Z,98445.03
2023-01-17T10:17:18.519Z,98439.91
2023-01-17T10:20:11.060Z,98436.66
2023-01-17T10:23:03.881Z,98451.13
2023-01-17T10:25:46.263Z,98452.06
2023-01-17T10:28:18.244Z,98446.66
2023-01-17T10:30:50.378Z,98450.53
2023-01-17T10:33:26.116Z,98451.78
2023-01-17T10:35:57.820Z,98449.78
2023-01-17T10:38:31.882Z,98445.66
2023-01-17T10:41:09.209Z,98449.66
2023-01-17T10:43:45.441Z,98448.72
2023-01-17T10:46:19.729Z,98441.75
2023-01-17T10:48:52.362Z,98446.88
2023-01-17T10:51:59.785Z,98446.41
2023-01-17T10:54:51.388Z,98457.06
2023-01-17T10:57:22.433Z,98446.63
2023-01-17T10:59:50.747Z,98456.53
2023-01-17T11:02:25.716Z,98452.25
2023-01-17T11:04:57.454Z,98457.56
2023-01-17T11:07:28.232Z,98447.13
2023-01-17T11:09:57.959Z,98458.03
2023-01-17T11:12:30.467Z,98448.44
2023-01-17T11:15:17.733Z,98455.88
2023-01-17T11:17:52.856Z,98449.94
2023-01-17T11:20:29.770Z,98460.09
2023-01-17T11:23:15.499Z,98462.06
2023-01-17T11:25:51.634Z,98465.16
2023-01-17T11:28:33.158Z,98455.56
2023-01-17T11:31:07.929Z,98463.44
2023-01-17T11:33:48.949Z,98461.63
2023-01-17T11:36:24.661Z,98463.22
2023-01-17T11:39:06.799Z,98466.44
2023-01-17T11:41:37.762Z,98459.91
2023-01-17T11:44:23.262Z,98460.25
2023-01-17T11:47:14.749Z,98455.38
2023-01-17T11:49:44.536Z,98465.41
2023-01-17T11:52:23.387Z,98457.53
2023-01-17T11:54:53.734Z,98465.75
2023-01-17T11:57:26.073Z,98462.75
2023-01-17T12:00:03.647Z,98459.72
2023-01-17T12:02:52.390Z,98448.69
2023-01-17T12:05:39.225Z,98450.16
2023-01-17T12:08:23.760Z,98452.91
2023-01-17T12:11:04.140Z,98448.94
2023-01-17T12:14:02.159Z,98452.13
2023-01-17T12:16:49.957Z,98455.38
2023-01-17T12:19:38.752Z,98459.38
2023-01-17T12:22:34.036Z,98455.38
2023-01-17T12:25:24.693Z,98450.28
2023-01-17T12:28:17.110Z,98457.78
2023-01-17T12:31:03.203Z,98455.03
2023-01-17T12:33:45.875Z,98458.59
2023-01-17T12:36:35.782Z,98458.13
2023-01-17T12:39:10.016Z,98467.47
2023-01-17T12:41:52.905Z,98463.88
2023-01-17T12:44:37.666Z,98463.22
2023-01-17T12:47:06.128Z,98472.84
2023-01-17T12:49:48.322Z,98469.09
2023-01-17T12:52:27.510Z,98473.34
2023-01-17T12:55:02.653Z,98475.47
2023-01-17T12:57:40.594Z,98482.66
2023-01-17T13:00:14.223Z,98481.00
2023-01-17T13:02:51.371Z,98485.84
2023-01-17T13:05:26.058Z,98481.00
2023-01-17T13:08:06.519Z,98485.13
2023-01-17T13:10:39.760Z,98484.25
2023-01-17T13:13:22.135Z,98491.84
2023-01-17T13:15:54.449Z,98489.56
2023-01-17T13:18:26.350Z,98499.06
2023-01-17T13:21:36.466Z,98499.38
2023-01-17T13:24:26.253Z,98503.41
2023-01-17T13:27:26.762Z,98504.56
2023-01-17T13:30:31.296Z,98498.00
2023-01-17T13:33:37.235Z,98501.00
2023-01-17T13:36:29.688Z,98502.97
2023-01-17T13:39:16.294Z,98501.28
2023-01-17T13:41:50.311Z,98507.03
2023-01-17T13:44:24.483Z,98511.75
2023-01-17T13:47:01.794Z,98508.59
2023-01-17T13:49:35.770Z,98521.50
2023-01-17T13:52:09.613Z,98512.94
2023-01-17T13:54:45.749Z,98511.22
2023-01-17T13:57:42.035Z,98531.06
2023-01-17T14:00:58.192Z,98520.22
2023-01-17T14:04:05.058Z,98518.41
2023-01-17T14:06:46.768Z,98534.66
2023-01-17T14:09:24.666Z,98531.34
2023-01-17T14:12:00.313Z,98539.13
2023-01-17T14:14:45.516Z,98530.53
2023-01-17T14:17:50.099Z,98538.44
2023-01-17T14:21:17.449Z,98540.63
2023-01-17T14:23:58.245Z,98541.06
2023-01-17T14:26:49.673Z,98543.13
2023-01-17T14:29:57.003Z,98549.88
2023-01-17T14:32:28.818Z,98549.06
2023-01-17T14:34:57.157Z,98550.88
2023-01-17T14:37:41.473Z,98551.34
2023-01-17T14:40:20.446Z,98553.28
2023-01-17T14:42:57.791Z,98550.75
2023-01-17T14:45:29.541Z,98559.75
2023-01-17T14:47:59.482Z,98563.44
2023-01-17T14:50:29.796Z,98561.44
2023-01-17T14:53:18.566Z,98572.84
2023-01-17T14:55:57.982Z,98569.06
2023-01-17T14:58:28.350Z,98574.56
2023-01-17T15:01:00.409Z,98581.75
2023-01-17T15:03:29.240Z,98578.56
2023-01-17T15:06:09.601Z,98578.13
2023-01-17T15:08:36.753Z,98580.19
2023-01-17T15:11:08.810Z,98579.19
2023-01-17T15:13:44.757Z,98581.94
2023-01-17T15:16:23.404Z,98586.72
2023-01-17T15:18:52.135Z,98582.66
2023-01-17T15:21:22.395Z,98579.81
2023-01-17T15:23:54.079Z,98580.38
2023-01-17T15:26:25.933Z,98585.94
2023-01-17T15:29:02.558Z,98580.91
2023-01-17T15:31:42.304Z,98575.50
2023-01-17T15:34:22.798Z,98577.22
2023-01-17T15:36:50.717Z,98588.59
2023-01-17T15:39:21.907Z,98584.38
2023-01-17T15:41:53.174Z,98583.56
2023-01-17T15:44:42.636Z,98582.25
2023-01-17T15:47:29.047Z,98585.31
2023-01-17T15:49:56.476Z,98588.38
2023-01-17T15:52:23.463Z,98587.78
2023-01-17T15:54:53.412Z,98582.97
2023-01-17T15:57:27.387Z,98583.84
2023-01-17T16:00:00.002Z,98585.88
2023-01-17T16:02:42.893Z,98583.09
2023-01-17T16:05:41.932Z,98587.34
2023-01-17T16:08:51.045Z,98581.06
2023-01-17T16:11:18.889Z,98585.88
2023-01-17T16:13:54.487Z,98589.31
2023-01-17T16:16:25.716Z,98597.97
2023-01-17T16:19:00.319Z,98597.00
2023-01-17T16:21:29.318Z,98594.38
2023-01-17T16:23:57.768Z,98604.28
2023-01-17T16:26:25.354Z,98611.34
2023-01-17T16:28:53.734Z,98619.63
2023-01-17T16:31:20.900Z,98626.91
2023-01-17T16:33:50.578Z,98624.69
2023-01-17T16:36:19.446Z,98626.56
2023-01-17T16:38:51.252Z,98622.19
2023-01-17T16:41:19.031Z,98621.44
2023-01-17T16:43:48.281Z,98629.13
2023-01-17T16:46:20.565Z,98635.22
2023-01-17T16:48:50.942Z,98633.63
2023-01-17T16:51:45.864Z,98639.72
2023-01-17T16:54:13.845Z,98641.38
2023-01-17T16:56:43.849Z,98646.84
2023-01-17T16:59:11.111Z,98655.53
2023-01-17T17:01:39.587Z,98648.69
2023-01-17T17:04:06.936Z,98664.03
2023-01-17T17:06:34.242Z,98667.69
2023-01-17T17:09:01.606Z,98669.09
2023-01-17T17:11:28.596Z,98669.53
2023-01-17T17:13:55.729Z,98669.94
2023-01-17T17:16:26.447Z,98682.03
2023-01-17T17:19:00.439Z,98684.88
2023-01-17T17:21:29.847Z,98684.09
2023-01-17T17:24:00.151Z,98681.06
2023-01-17T17:26:31.207Z,98680.69
2023-01-17T17:28:58.696Z,98683.53
2023-01-17T17:31:26.469Z,98689.16
2023-01-17T17:34:02.739Z,98704.91
2023-01-17T17:36:30.475Z,98709.53
2023-01-17T17:38:58.333Z,98721.81
2023-01-17T17:41:28.461Z,98717.19
2023-01-17T17:43:55.673Z,98713.97
2023-01-17T17:46:25.836Z,98716.59
2023-01-17T17:48:53.296Z,98719.41
2023-01-17T17:51:26.250Z,98723.81
2023-01-17T17:53:54.428Z,98715.78
2023-01-17T17:56:22.383Z,98725.25
2023-01-17T17:58:50.098Z,98724.66
2023-01-17T18:01:17.281Z,98733.88
2023-01-17T18:03:44.731Z,98731.84
2023-01-17T18:06:13.190Z,98733.28
2023-01-17T18:08:41.681Z,98736.09
2023-01-17T18:11:13.887Z,98737.50
2023-01-17T18:13:42.684Z,98746.53
2023-01-17T18:16:14.309Z,98744.31
2023-01-17T18:18:46.448Z,98749.16
2023-01-17T18:21:16.788Z,98747.13
2023-01-17T18:23:45.499Z,98754.78
2023-01-17T18:26:19.006Z,98746.31
2023-01-17T18:28:47.722Z,98758.00
2023-01-17T18:31:15.477Z,98754.97
2023-01-17T18:33:43.111Z,98755.56
2023-01-17T18:36:13.288Z,98763.19
2023-01-17T18:38:43.831Z,98755.97
2023-01-17T18:41:15.271Z,98772.25
2023-01-17T18:43:43.356Z,98769.25
2023-01-17T18:46:11.680Z,98768.03
2023-01-17T18:48:45.549Z,98778.88
2023-01-17T18:51:16.753Z,98782.31
2023-01-17T18:53:46.102Z,98790.34
2023-01-17T18:56:18.080Z,98783.28
2023-01-17T18:58:48.093Z,98784.69
2023-01-17T19:01:17.862Z,98796.13
2023-01-17T19:03:48.158Z,98786.28
2023-01-17T19:06:18.536Z,98790.09
2023-01-17T19:08:45.774Z,98784.03
2023-01-17T19:11:14.319Z,98789.28
2023-01-17T19:13:44.323Z,98790.28
2023-01-17T19:16:15.364Z,98787.28
2023-01-17T19:18:43.083Z,98787.69
2023-01-17T19:21:13.509Z,98792.53
2023-01-17T19:23:45.551Z,98788.66
2023-01-17T19:26:17.074Z,98789.28
2023-01-17T19:28:46.434Z,98795.16
2023-01-17T19:31:16.320Z,98805.78
2023-01-17T19:33:45.586Z,98803.78
2023-01-17T19:36:18.792Z,98800.16
2023-01-17T19:39:02.952Z,98798.16
2023-01-17T19:41:34.302Z,98798.16
2023-01-17T19:44:04.433Z,98796.94
2023-01-17T19:46:32.882Z,98796.94
2023-01-17T19:49:00.294Z,98808.00
2023-01-17T19:51:27.807Z,98808.00
2023-01-17T19:53:55.224Z,98809.03
2023-01-17T19:56:25.191Z,98807.44
2023-01-17T19:58:54.256Z,98799.59
2023-01-17T20:01:24.468Z,98805.22
2023-01-17T20:03:52.339Z,98805.78
2023-01-17T20:06:22.431Z,98811.41
2023-01-17T20:08:50.325Z,98808.38
2023-01-17T20:11:20.175Z,98811.22
2023-01-17T20:13:49.185Z,98799.41
2023-01-17T20:16:18.271Z,98809.03
2023-01-17T20:18:45.627Z,98804.03
2023-01-17T20:21:17.117Z,98807.84
2023-01-17T20:23:47.249Z,98806.06
2023-01-17T20:26:15.742Z,98811.31
2023-01-17T20:28:47.198Z,98811.50
2023-01-17T20:31:18.515Z,98808.09
2023-01-17T20:33:46.995Z,98816.34
2023-01-17T20:36:16.652Z,98806.69
2023-01-17T20:38:44.938Z,98807.09
2023-01-17T20:41:14.994Z,98810.31
2023-01-17T20:43:43.344Z,98807.69
2023-01-17T20:46:11.404Z,98804.28
2023-01-17T20:48:44.891Z,98805.50
2023-01-17T20:51:13.167Z,98799.47
2023-01-17T20:53:43.206Z,98802.31
2023-01-17T20:56:15.277Z,98799.88
2023-01-17T20:58:42.984Z,98810.75
2023-01-17T21:01:13.442Z,98806.34
2023-01-17T21:03:42.278Z,98810.53
2023-01-17T21:06:13.781Z,98814.78
2023-01-17T21:08:43.665Z,98811.56
2023-01-17T21:11:16.513Z,98811.94
2023-01-17T21:13:44.850Z,98822.78
2023-01-17T21:16:14.155Z,98817.53
2023-01-17T21:18:45.398Z,98818.50
2023-01-17T21:21:16.940Z,98820.69
2023-01-17T21:23:44.933Z,98824.03
2023-01-17T21:26:15.128Z,98827.00
2023-01-17T21:28:44.533Z,98824.13
2023-01-17T21:31:22.936Z,98822.91
2023-01-17T21:33:55.038Z,98826.66
2023-01-17T21:36:25.129Z,98833.66
2023-01-17T21:38:56.674Z,98829.25
2023-01-17T21:41:28.351Z,98837.41
2023-01-17T21:43:57.364Z,98838.34
2023-01-17T21:46:25.384Z,98833.69
2023-01-17T21:48:53.853Z,98833.09
2023-01-17T21:51:21.678Z,98838.31
2023-01-17T21:53:48.693Z,98847.16
2023-01-17T21:56:34.919Z,98847.91
2023-01-17T21:59:01.828Z,98844.22
2023-01-17T22:01:32.994Z,98853.63
2023-01-17T22:04:03.509Z,98844.19
2023-01-17T22:06:36.307Z,98856.66
2023-01-17T22:09:04.295Z,98854.25
2023-01-17T22:11:31.302Z,98855.38
2023-01-17T22:13:59.401Z,98850.91
2023-01-17T22:16:26.438Z,98860.13
2023-01-17T22:18:53.498Z,98859.31
2023-01-17T22:21:25.085Z,98860.47
2023-01-17T22:23:54.940Z,98869.16
2023-01-17T22:26:24.765Z,98871.41
2023-01-17T22:28:52.311Z,98875.41
2023-01-17T22:31:22.423Z,98880.16
2023-01-17T22:33:54.325Z,98881.97
2023-01-17T22:36:23.434Z,98879.34
2023-01-17T22:38:51.116Z,98885.59
2023-01-17T22:41:21.693Z,98888.19
2023-01-17T22:43:50.721Z,98889.78
2023-01-17T22:46:21.571Z,98890.97
2023-01-17T22:48:49.219Z,98900.63
2023-01-17T22:51:18.990Z,98892.41
2023-01-17T22:53:49.892Z,98889.78
2023-01-17T22:56:19.653Z,98887.81
2023-01-17T22:58:55.610Z,98901.09
2023-01-17T23:01:47.028Z,98914.53
2023-01-17T23:04:17.043Z,98905.06
2023-01-17T23:06:44.022Z,98907.44
2023-01-17T23:09:15.279Z,98907.81
2023-01-17T23:11:47.149Z,98905.22
2023-01-17T23:14:17.722Z,98906.19
2023-01-17T23:17:05.844Z,98906.56
2023-01-17T23:19:36.648Z,98909.38
2023-01-17T23:22:16.284Z,98915.13
2023-01-17T23:24:48.791Z,98927.34
2023-01-17T23:27:37.678Z,98924.66
2023-01-17T23:30:07.692Z,98916.00
2023-01-17T23:32:34.667Z,98924.81
2023-01-17T23:35:01.644Z,98933.25
2023-01-17T23:37:49.465Z,98933.69
2023-01-17T23:40:19.095Z,98933.69
2023-01-17T23:43:04.919Z,98938.72
2023-01-17T23:45:35.639Z,98938.66
2023-01-17T23:48:05.376Z,98939.66
2023-01-17T23:50:32.884Z,98938.59
2023-01-17T23:53:00.230Z,98939.78
2023-01-17T23:55:28.613Z,98939.31
2023-01-17T23:57:55.933Z,98937.72
